sensor_id;sensor_type;location;lat;lon;timestamp;P1;durP1;ratioP1;P2;durP2;ratioP2
78648;SDS011;67962;47.310;9.642;2023-12-04T00:01:16;1.85;;;1.35;;
78648;SDS011;67962;47.310;9.642;2023-12-04T00:03:42;2.50;;;1.42;;
78648;SDS011;67962;47.310;9.642;2023-12-04T00:06:09;2.20;;;1.33;;
78648;SDS011;67962;47.310;9.642;2023-12-04T00:08:36;3.70;;;1.67;;
78648;SDS011;67962;47.310;9.642;2023-12-04T00:11:03;2.90;;;1.67;;
78648;SDS011;67962;47.310;9.642;2023-12-04T00:13:29;3.20;;;1.75;;
78648;SDS011;67962;47.310;9.642;2023-12-04T00:15:55;2.40;;;1.40;;
78648;SDS011;67962;47.310;9.642;2023-12-04T00:18:20;1.67;;;1.13;;
78648;SDS011;67962;47.310;9.642;2023-12-04T00:20:46;1.98;;;1.35;;
78648;SDS011;67962;47.310;9.642;2023-12-04T00:23:12;2.15;;;1.50;;
78648;SDS011;67962;47.310;9.642;2023-12-04T00:25:37;1.85;;;1.48;;
78648;SDS011;67962;47.310;9.642;2023-12-04T00:28:03;2.97;;;1.25;;
78648;SDS011;67962;47.310;9.642;2023-12-04T00:30:29;2.17;;;1.42;;
78648;SDS011;67962;47.310;9.642;2023-12-04T00:32:54;1.55;;;1.38;;
78648;SDS011;67962;47.310;9.642;2023-12-04T00:35:20;2.50;;;1.48;;
78648;SDS011;67962;47.310;9.642;2023-12-04T00:37:46;2.13;;;1.35;;
78648;SDS011;67962;47.310;9.642;2023-12-04T00:40:11;1.98;;;1.20;;
78648;SDS011;67962;47.310;9.642;2023-12-04T00:42:37;2.63;;;1.38;;
78648;SDS011;67962;47.310;9.642;2023-12-04T00:45:03;1.70;;;1.42;;
78648;SDS011;67962;47.310;9.642;2023-12-04T00:47:29;2.20;;;1.38;;
78648;SDS011;67962;47.310;9.642;2023-12-04T00:49:55;2.42;;;1.45;;
78648;SDS011;67962;47.310;9.642;2023-12-04T00:52:21;1.95;;;1.33;;
78648;SDS011;67962;47.310;9.642;2023-12-04T00:54:46;1.35;;;1.25;;
78648;SDS011;67962;47.310;9.642;2023-12-04T00:57:12;2.40;;;1.13;;
78648;SDS011;67962;47.310;9.642;2023-12-04T00:59:38;2.10;;;1.27;;
78648;SDS011;67962;47.310;9.642;2023-12-04T01:02:03;2.10;;;1.27;;
78648;SDS011;67962;47.310;9.642;2023-12-04T01:04:31;2.17;;;1.30;;
78648;SDS011;67962;47.310;9.642;2023-12-04T01:06:57;1.52;;;1.38;;
78648;SDS011;67962;47.310;9.642;2023-12-04T01:09:23;2.40;;;1.40;;
78648;SDS011;67962;47.310;9.642;2023-12-04T01:11:52;1.48;;;0.90;;
78648;SDS011;67962;47.310;9.642;2023-12-04T01:14:19;2.08;;;1.33;;
78648;SDS011;67962;47.310;9.642;2023-12-04T01:16:45;1.75;;;1.13;;
78648;SDS011;67962;47.310;9.642;2023-12-04T01:19:11;2.10;;;1.27;;
78648;SDS011;67962;47.310;9.642;2023-12-04T01:21:37;2.05;;;1.17;;
78648;SDS011;67962;47.310;9.642;2023-12-04T01:24:02;3.17;;;1.20;;
78648;SDS011;67962;47.310;9.642;2023-12-04T01:26:28;3.17;;;1.80;;
78648;SDS011;67962;47.310;9.642;2023-12-04T01:28:54;2.25;;;1.17;;
78648;SDS011;67962;47.310;9.642;2023-12-04T01:31:20;2.08;;;1.20;;
78648;SDS011;67962;47.310;9.642;2023-12-04T01:33:46;2.38;;;1.10;;
78648;SDS011;67962;47.310;9.642;2023-12-04T01:36:12;2.92;;;1.17;;
78648;SDS011;67962;47.310;9.642;2023-12-04T01:38:38;1.35;;;1.17;;
78648;SDS011;67962;47.310;9.642;2023-12-04T01:41:04;1.48;;;1.20;;
78648;SDS011;67962;47.310;9.642;2023-12-04T01:43:30;3.17;;;1.20;;
78648;SDS011;67962;47.310;9.642;2023-12-04T01:45:56;1.67;;;0.93;;
78648;SDS011;67962;47.310;9.642;2023-12-04T01:48:22;1.42;;;1.17;;
78648;SDS011;67962;47.310;9.642;2023-12-04T01:50:50;1.27;;;1.00;;
78648;SDS011;67962;47.310;9.642;2023-12-04T01:53:17;2.20;;;1.20;;
78648;SDS011;67962;47.310;9.642;2023-12-04T01:55:42;1.30;;;0.98;;
78648;SDS011;67962;47.310;9.642;2023-12-04T01:58:08;1.50;;;1.17;;
78648;SDS011;67962;47.310;9.642;2023-12-04T02:00:35;1.73;;;1.20;;
78648;SDS011;67962;47.310;9.642;2023-12-04T02:03:01;1.38;;;1.15;;
78648;SDS011;67962;47.310;9.642;2023-12-04T02:05:27;1.85;;;1.17;;
78648;SDS011;67962;47.310;9.642;2023-12-04T02:07:53;1.23;;;1.10;;
78648;SDS011;67962;47.310;9.642;2023-12-04T02:10:20;1.25;;;1.13;;
78648;SDS011;67962;47.310;9.642;2023-12-04T02:12:46;1.50;;;1.10;;
78648;SDS011;67962;47.310;9.642;2023-12-04T02:15:12;1.35;;;1.00;;
78648;SDS011;67962;47.310;9.642;2023-12-04T02:17:38;1.20;;;1.10;;
78648;SDS011;67962;47.310;9.642;2023-12-04T02:20:05;1.40;;;1.10;;
78648;SDS011;67962;47.310;9.642;2023-12-04T02:22:31;3.85;;;0.90;;
78648;SDS011;67962;47.310;9.642;2023-12-04T02:24:57;1.35;;;1.08;;
78648;SDS011;67962;47.310;9.642;2023-12-04T02:27:26;1.42;;;1.17;;
78648;SDS011;67962;47.310;9.642;2023-12-04T02:29:59;2.00;;;1.17;;
78648;SDS011;67962;47.310;9.642;2023-12-04T02:32:28;3.13;;;1.10;;
78648;SDS011;67962;47.310;9.642;2023-12-04T02:34:55;1.52;;;1.25;;
78648;SDS011;67962;47.310;9.642;2023-12-04T02:37:23;1.88;;;1.02;;
78648;SDS011;67962;47.310;9.642;2023-12-04T02:39:50;1.42;;;1.20;;
78648;SDS011;67962;47.310;9.642;2023-12-04T02:42:20;2.25;;;1.23;;
78648;SDS011;67962;47.310;9.642;2023-12-04T02:44:46;1.40;;;1.00;;
78648;SDS011;67962;47.310;9.642;2023-12-04T02:47:11;1.40;;;1.00;;
78648;SDS011;67962;47.310;9.642;2023-12-04T02:49:37;1.80;;;1.10;;
78648;SDS011;67962;47.310;9.642;2023-12-04T02:52:03;2.08;;;1.00;;
78648;SDS011;67962;47.310;9.642;2023-12-04T02:54:29;2.22;;;1.17;;
78648;SDS011;67962;47.310;9.642;2023-12-04T02:56:54;3.55;;;1.20;;
78648;SDS011;67962;47.310;9.642;2023-12-04T02:59:20;1.38;;;1.20;;
78648;SDS011;67962;47.310;9.642;2023-12-04T03:01:46;2.72;;;1.33;;
78648;SDS011;67962;47.310;9.642;2023-12-04T03:04:11;1.77;;;1.35;;
78648;SDS011;67962;47.310;9.642;2023-12-04T03:06:37;1.77;;;1.02;;
78648;SDS011;67962;47.310;9.642;2023-12-04T03:09:03;1.35;;;1.15;;
78648;SDS011;67962;47.310;9.642;2023-12-04T03:11:29;3.15;;;1.42;;
78648;SDS011;67962;47.310;9.642;2023-12-04T03:13:56;2.05;;;1.30;;
78648;SDS011;67962;47.310;9.642;2023-12-04T03:16:22;2.35;;;1.17;;
78648;SDS011;67962;47.310;9.642;2023-12-04T03:18:47;2.83;;;1.40;;
78648;SDS011;67962;47.310;9.642;2023-12-04T03:21:13;2.83;;;1.40;;
78648;SDS011;67962;47.310;9.642;2023-12-04T03:23:39;1.90;;;1.30;;
78648;SDS011;67962;47.310;9.642;2023-12-04T03:26:04;3.10;;;1.40;;
78648;SDS011;67962;47.310;9.642;2023-12-04T03:28:30;2.33;;;1.73;;
78648;SDS011;67962;47.310;9.642;2023-12-04T03:30:56;2.65;;;1.65;;
78648;SDS011;67962;47.310;9.642;2023-12-04T03:33:22;4.93;;;1.60;;
78648;SDS011;67962;47.310;9.642;2023-12-04T03:35:47;2.53;;;1.77;;
78648;SDS011;67962;47.310;9.642;2023-12-04T03:38:13;1.60;;;1.40;;
78648;SDS011;67962;47.310;9.642;2023-12-04T03:40:39;2.58;;;1.73;;
78648;SDS011;67962;47.310;9.642;2023-12-04T03:43:04;2.55;;;1.80;;
78648;SDS011;67962;47.310;9.642;2023-12-04T03:45:30;1.52;;;1.42;;
78648;SDS011;67962;47.310;9.642;2023-12-04T03:47:56;3.15;;;1.50;;
78648;SDS011;67962;47.310;9.642;2023-12-04T03:50:21;2.67;;;1.63;;
78648;SDS011;67962;47.310;9.642;2023-12-04T03:52:47;1.98;;;1.25;;
78648;SDS011;67962;47.310;9.642;2023-12-04T03:55:13;1.55;;;1.20;;
78648;SDS011;67962;47.310;9.642;2023-12-04T03:57:39;4.50;;;1.75;;
78648;SDS011;67962;47.310;9.642;2023-12-04T04:00:05;4.38;;;1.67;;
78648;SDS011;67962;47.310;9.642;2023-12-04T04:02:31;2.47;;;1.60;;
78648;SDS011;67962;47.310;9.642;2023-12-04T04:04:56;2.80;;;1.70;;
78648;SDS011;67962;47.310;9.642;2023-12-04T04:07:22;3.22;;;1.70;;
78648;SDS011;67962;47.310;9.642;2023-12-04T04:09:48;2.35;;;1.73;;
78648;SDS011;67962;47.310;9.642;2023-12-04T04:12:13;3.85;;;2.10;;
78648;SDS011;67962;47.310;9.642;2023-12-04T04:14:39;3.45;;;1.90;;
78648;SDS011;67962;47.310;9.642;2023-12-04T04:17:05;3.30;;;1.85;;
78648;SDS011;67962;47.310;9.642;2023-12-04T04:19:30;3.47;;;1.45;;
78648;SDS011;67962;47.310;9.642;2023-12-04T04:21:56;4.78;;;1.77;;
78648;SDS011;67962;47.310;9.642;2023-12-04T04:24:22;3.63;;;1.60;;
78648;SDS011;67962;47.310;9.642;2023-12-04T04:26:47;2.00;;;1.50;;
78648;SDS011;67962;47.310;9.642;2023-12-04T04:29:13;2.55;;;1.38;;
78648;SDS011;67962;47.310;9.642;2023-12-04T04:31:39;2.40;;;1.80;;
78648;SDS011;67962;47.310;9.642;2023-12-04T04:34:04;4.30;;;2.38;;
78648;SDS011;67962;47.310;9.642;2023-12-04T04:36:30;2.10;;;1.83;;
78648;SDS011;67962;47.310;9.642;2023-12-04T04:38:56;4.20;;;2.08;;
78648;SDS011;67962;47.310;9.642;2023-12-04T04:41:22;3.00;;;2.03;;
78648;SDS011;67962;47.310;9.642;2023-12-04T04:43:48;6.68;;;2.25;;
78648;SDS011;67962;47.310;9.642;2023-12-04T04:46:14;2.35;;;1.77;;
78648;SDS011;67962;47.310;9.642;2023-12-04T04:48:40;2.75;;;1.63;;
78648;SDS011;67962;47.310;9.642;2023-12-04T04:51:06;2.45;;;1.38;;
78648;SDS011;67962;47.310;9.642;2023-12-04T04:53:31;3.92;;;1.63;;
78648;SDS011;67962;47.310;9.642;2023-12-04T04:55:57;3.78;;;1.70;;
78648;SDS011;67962;47.310;9.642;2023-12-04T04:58:23;3.00;;;1.73;;
78648;SDS011;67962;47.310;9.642;2023-12-04T05:00:48;3.53;;;1.70;;
78648;SDS011;67962;47.310;9.642;2023-12-04T05:03:14;2.60;;;1.60;;
78648;SDS011;67962;47.310;9.642;2023-12-04T05:05:40;2.78;;;1.55;;
78648;SDS011;67962;47.310;9.642;2023-12-04T05:08:06;2.70;;;1.52;;
78648;SDS011;67962;47.310;9.642;2023-12-04T05:10:31;2.30;;;1.70;;
78648;SDS011;67962;47.310;9.642;2023-12-04T05:12:57;2.10;;;1.55;;
78648;SDS011;67962;47.310;9.642;2023-12-04T05:15:22;4.80;;;2.45;;
78648;SDS011;67962;47.310;9.642;2023-12-04T05:17:48;7.43;;;3.75;;
78648;SDS011;67962;47.310;9.642;2023-12-04T05:20:14;6.85;;;3.47;;
78648;SDS011;67962;47.310;9.642;2023-12-04T05:22:40;6.47;;;3.42;;
78648;SDS011;67962;47.310;9.642;2023-12-04T05:25:06;7.15;;;3.58;;
78648;SDS011;67962;47.310;9.642;2023-12-04T05:27:32;5.15;;;3.38;;
78648;SDS011;67962;47.310;9.642;2023-12-04T05:29:57;4.65;;;3.13;;
78648;SDS011;67962;47.310;9.642;2023-12-04T05:32:23;4.57;;;2.53;;
78648;SDS011;67962;47.310;9.642;2023-12-04T05:34:49;8.32;;;3.65;;
78648;SDS011;67962;47.310;9.642;2023-12-04T05:37:15;5.93;;;3.33;;
78648;SDS011;67962;47.310;9.642;2023-12-04T05:39:41;4.53;;;2.63;;
78648;SDS011;67962;47.310;9.642;2023-12-04T05:42:07;4.32;;;2.75;;
78648;SDS011;67962;47.310;9.642;2023-12-04T05:44:33;8.40;;;4.00;;
78648;SDS011;67962;47.310;9.642;2023-12-04T05:47:00;8.32;;;4.50;;
78648;SDS011;67962;47.310;9.642;2023-12-04T05:49:25;9.02;;;4.30;;
78648;SDS011;67962;47.310;9.642;2023-12-04T05:51:51;8.35;;;4.40;;
78648;SDS011;67962;47.310;9.642;2023-12-04T05:54:17;10.55;;;5.13;;
78648;SDS011;67962;47.310;9.642;2023-12-04T05:56:43;14.40;;;7.30;;
78648;SDS011;67962;47.310;9.642;2023-12-04T05:59:08;14.32;;;7.78;;
78648;SDS011;67962;47.310;9.642;2023-12-04T06:01:34;12.07;;;6.30;;
78648;SDS011;67962;47.310;9.642;2023-12-04T06:04:00;9.95;;;5.28;;
78648;SDS011;67962;47.310;9.642;2023-12-04T06:06:26;7.68;;;4.35;;
78648;SDS011;67962;47.310;9.642;2023-12-04T06:08:52;5.80;;;3.35;;
78648;SDS011;67962;47.310;9.642;2023-12-04T06:11:17;6.53;;;3.30;;
78648;SDS011;67962;47.310;9.642;2023-12-04T06:13:43;6.22;;;3.17;;
78648;SDS011;67962;47.310;9.642;2023-12-04T06:16:09;5.25;;;3.50;;
78648;SDS011;67962;47.310;9.642;2023-12-04T06:18:34;5.40;;;3.55;;
78648;SDS011;67962;47.310;9.642;2023-12-04T06:21:00;6.40;;;3.50;;
78648;SDS011;67962;47.310;9.642;2023-12-04T06:23:26;6.55;;;3.80;;
78648;SDS011;67962;47.310;9.642;2023-12-04T06:25:52;6.65;;;3.35;;
78648;SDS011;67962;47.310;9.642;2023-12-04T06:28:18;9.30;;;4.57;;
78648;SDS011;67962;47.310;9.642;2023-12-04T06:30:44;15.57;;;7.25;;
78648;SDS011;67962;47.310;9.642;2023-12-04T06:33:10;12.48;;;6.28;;
78648;SDS011;67962;47.310;9.642;2023-12-04T06:35:38;14.20;;;6.35;;
78648;SDS011;67962;47.310;9.642;2023-12-04T06:38:07;13.48;;;6.68;;
78648;SDS011;67962;47.310;9.642;2023-12-04T06:40:33;13.70;;;6.97;;
78648;SDS011;67962;47.310;9.642;2023-12-04T06:43:00;15.35;;;7.00;;
78648;SDS011;67962;47.310;9.642;2023-12-04T06:45:26;14.38;;;7.50;;
78648;SDS011;67962;47.310;9.642;2023-12-04T06:47:52;14.02;;;6.53;;
78648;SDS011;67962;47.310;9.642;2023-12-04T06:50:19;15.40;;;7.15;;
78648;SDS011;67962;47.310;9.642;2023-12-04T06:52:45;16.13;;;7.72;;
78648;SDS011;67962;47.310;9.642;2023-12-04T06:55:12;11.30;;;6.55;;
78648;SDS011;67962;47.310;9.642;2023-12-04T06:57:38;12.05;;;6.57;;
78648;SDS011;67962;47.310;9.642;2023-12-04T07:00:04;12.13;;;6.22;;
78648;SDS011;67962;47.310;9.642;2023-12-04T07:02:37;12.35;;;6.97;;
78648;SDS011;67962;47.310;9.642;2023-12-04T07:05:03;9.63;;;5.93;;
78648;SDS011;67962;47.310;9.642;2023-12-04T07:07:29;17.80;;;7.38;;
78648;SDS011;67962;47.310;9.642;2023-12-04T07:09:55;13.57;;;6.75;;
78648;SDS011;67962;47.310;9.642;2023-12-04T07:12:20;13.35;;;7.10;;
78648;SDS011;67962;47.310;9.642;2023-12-04T07:14:46;10.73;;;6.50;;
78648;SDS011;67962;47.310;9.642;2023-12-04T07:17:12;11.43;;;6.97;;
78648;SDS011;67962;47.310;9.642;2023-12-04T07:19:38;12.68;;;7.78;;
78648;SDS011;67962;47.310;9.642;2023-12-04T07:22:06;12.77;;;6.72;;
78648;SDS011;67962;47.310;9.642;2023-12-04T07:24:32;8.45;;;5.65;;
78648;SDS011;67962;47.310;9.642;2023-12-04T07:26:58;9.63;;;5.70;;
78648;SDS011;67962;47.310;9.642;2023-12-04T07:29:23;13.93;;;6.22;;
78648;SDS011;67962;47.310;9.642;2023-12-04T07:31:49;11.65;;;6.45;;
78648;SDS011;67962;47.310;9.642;2023-12-04T07:34:15;14.20;;;7.03;;
78648;SDS011;67962;47.310;9.642;2023-12-04T07:36:41;13.63;;;6.95;;
78648;SDS011;67962;47.310;9.642;2023-12-04T07:39:09;14.23;;;6.70;;
78648;SDS011;67962;47.310;9.642;2023-12-04T07:41:35;11.32;;;6.07;;
78648;SDS011;67962;47.310;9.642;2023-12-04T07:44:01;13.27;;;7.18;;
78648;SDS011;67962;47.310;9.642;2023-12-04T07:46:28;13.52;;;7.93;;
78648;SDS011;67962;47.310;9.642;2023-12-04T07:48:54;13.80;;;7.53;;
78648;SDS011;67962;47.310;9.642;2023-12-04T07:51:20;13.02;;;7.35;;
78648;SDS011;67962;47.310;9.642;2023-12-04T07:53:46;14.70;;;7.60;;
78648;SDS011;67962;47.310;9.642;2023-12-04T07:56:12;12.23;;;7.13;;
78648;SDS011;67962;47.310;9.642;2023-12-04T07:58:38;15.35;;;7.75;;
78648;SDS011;67962;47.310;9.642;2023-12-04T08:01:04;18.27;;;8.80;;
78648;SDS011;67962;47.310;9.642;2023-12-04T08:03:30;21.05;;;11.32;;
78648;SDS011;67962;47.310;9.642;2023-12-04T08:05:56;20.10;;;10.07;;
78648;SDS011;67962;47.310;9.642;2023-12-04T08:08:23;16.25;;;9.70;;
78648;SDS011;67962;47.310;9.642;2023-12-04T08:10:49;16.02;;;9.55;;
78648;SDS011;67962;47.310;9.642;2023-12-04T08:13:14;17.30;;;9.70;;
78648;SDS011;67962;47.310;9.642;2023-12-04T08:15:41;23.77;;;10.50;;
78648;SDS011;67962;47.310;9.642;2023-12-04T08:18:07;19.13;;;9.82;;
78648;SDS011;67962;47.310;9.642;2023-12-04T08:20:32;20.67;;;10.00;;
78648;SDS011;67962;47.310;9.642;2023-12-04T08:22:58;21.20;;;9.32;;
78648;SDS011;67962;47.310;9.642;2023-12-04T08:25:24;22.85;;;10.50;;
78648;SDS011;67962;47.310;9.642;2023-12-04T08:27:49;16.40;;;9.65;;
78648;SDS011;67962;47.310;9.642;2023-12-04T08:30:16;24.98;;;9.50;;
78648;SDS011;67962;47.310;9.642;2023-12-04T08:32:41;35.08;;;8.98;;
78648;SDS011;67962;47.310;9.642;2023-12-04T08:35:08;17.98;;;9.18;;
78648;SDS011;67962;47.310;9.642;2023-12-04T08:37:33;14.85;;;8.23;;
78648;SDS011;67962;47.310;9.642;2023-12-04T08:39:59;13.13;;;7.35;;
78648;SDS011;67962;47.310;9.642;2023-12-04T08:42:24;15.43;;;7.97;;
78648;SDS011;67962;47.310;9.642;2023-12-04T08:44:51;17.35;;;7.75;;
78648;SDS011;67962;47.310;9.642;2023-12-04T08:47:17;18.90;;;7.93;;
78648;SDS011;67962;47.310;9.642;2023-12-04T08:49:43;15.98;;;8.05;;
78648;SDS011;67962;47.310;9.642;2023-12-04T08:52:09;14.15;;;7.03;;
78648;SDS011;67962;47.310;9.642;2023-12-04T08:54:38;21.20;;;7.63;;
78648;SDS011;67962;47.310;9.642;2023-12-04T08:57:04;14.38;;;7.40;;
78648;SDS011;67962;47.310;9.642;2023-12-04T08:59:30;17.17;;;7.55;;
78648;SDS011;67962;47.310;9.642;2023-12-04T09:01:56;20.05;;;7.40;;
78648;SDS011;67962;47.310;9.642;2023-12-04T09:04:21;21.65;;;7.53;;
78648;SDS011;67962;47.310;9.642;2023-12-04T09:06:47;18.80;;;8.20;;
78648;SDS011;67962;47.310;9.642;2023-12-04T09:09:13;19.88;;;7.70;;
78648;SDS011;67962;47.310;9.642;2023-12-04T09:11:43;17.35;;;7.55;;
78648;SDS011;67962;47.310;9.642;2023-12-04T09:14:09;20.55;;;8.15;;
78648;SDS011;67962;47.310;9.642;2023-12-04T09:16:36;16.23;;;8.75;;
78648;SDS011;67962;47.310;9.642;2023-12-04T09:19:02;25.77;;;9.90;;
78648;SDS011;67962;47.310;9.642;2023-12-04T09:21:27;24.27;;;11.70;;
78648;SDS011;67962;47.310;9.642;2023-12-04T09:23:53;18.88;;;9.13;;
78648;SDS011;67962;47.310;9.642;2023-12-04T09:26:19;22.67;;;10.75;;
78648;SDS011;67962;47.310;9.642;2023-12-04T09:28:44;21.10;;;10.32;;
78648;SDS011;67962;47.310;9.642;2023-12-04T09:31:10;38.30;;;14.63;;
78648;SDS011;67962;47.310;9.642;2023-12-04T09:33:36;29.50;;;14.40;;
78648;SDS011;67962;47.310;9.642;2023-12-04T09:36:02;27.48;;;13.40;;
78648;SDS011;67962;47.310;9.642;2023-12-04T09:38:28;21.27;;;11.35;;
78648;SDS011;67962;47.310;9.642;2023-12-04T09:40:54;21.17;;;11.32;;
78648;SDS011;67962;47.310;9.642;2023-12-04T09:43:26;21.45;;;10.60;;
78648;SDS011;67962;47.310;9.642;2023-12-04T09:45:54;21.40;;;11.10;;
78648;SDS011;67962;47.310;9.642;2023-12-04T09:48:20;23.13;;;12.10;;
78648;SDS011;67962;47.310;9.642;2023-12-04T09:50:47;22.48;;;10.95;;
78648;SDS011;67962;47.310;9.642;2023-12-04T09:53:13;20.65;;;10.73;;
78648;SDS011;67962;47.310;9.642;2023-12-04T09:55:39;19.02;;;9.85;;
78648;SDS011;67962;47.310;9.642;2023-12-04T09:58:05;15.52;;;9.18;;
78648;SDS011;67962;47.310;9.642;2023-12-04T10:00:31;16.67;;;9.70;;
78648;SDS011;67962;47.310;9.642;2023-12-04T10:02:57;19.40;;;10.60;;
78648;SDS011;67962;47.310;9.642;2023-12-04T10:05:24;27.23;;;11.68;;
78648;SDS011;67962;47.310;9.642;2023-12-04T10:07:50;17.27;;;10.25;;
78648;SDS011;67962;47.310;9.642;2023-12-04T10:10:16;20.05;;;9.68;;
78648;SDS011;67962;47.310;9.642;2023-12-04T10:12:43;21.02;;;10.27;;
78648;SDS011;67962;47.310;9.642;2023-12-04T10:15:10;20.15;;;10.52;;
78648;SDS011;67962;47.310;9.642;2023-12-04T10:17:38;19.83;;;9.60;;
78648;SDS011;67962;47.310;9.642;2023-12-04T10:20:11;20.77;;;10.35;;
78648;SDS011;67962;47.310;9.642;2023-12-04T10:22:52;17.48;;;9.27;;
78648;SDS011;67962;47.310;9.642;2023-12-04T10:25:19;24.90;;;9.57;;
78648;SDS011;67962;47.310;9.642;2023-12-04T10:27:46;18.60;;;8.90;;
78648;SDS011;67962;47.310;9.642;2023-12-04T10:30:22;17.98;;;8.88;;
78648;SDS011;67962;47.310;9.642;2023-12-04T10:32:52;20.55;;;10.32;;
78648;SDS011;67962;47.310;9.642;2023-12-04T10:35:20;16.02;;;8.95;;
78648;SDS011;67962;47.310;9.642;2023-12-04T10:37:46;20.00;;;8.95;;
78648;SDS011;67962;47.310;9.642;2023-12-04T10:40:12;20.10;;;9.52;;
78648;SDS011;67962;47.310;9.642;2023-12-04T10:42:51;18.50;;;10.75;;
78648;SDS011;67962;47.310;9.642;2023-12-04T10:45:35;18.65;;;9.52;;
78648;SDS011;67962;47.310;9.642;2023-12-04T10:48:02;16.13;;;10.07;;
78648;SDS011;67962;47.310;9.642;2023-12-04T10:50:31;22.65;;;10.20;;
78648;SDS011;67962;47.310;9.642;2023-12-04T10:53:03;19.17;;;10.02;;
78648;SDS011;67962;47.310;9.642;2023-12-04T10:55:33;22.73;;;10.65;;
78648;SDS011;67962;47.310;9.642;2023-12-04T10:58:01;21.77;;;10.65;;
78648;SDS011;67962;47.310;9.642;2023-12-04T11:00:35;20.67;;;10.88;;
78648;SDS011;67962;47.310;9.642;2023-12-04T11:03:13;17.95;;;9.95;;
78648;SDS011;67962;47.310;9.642;2023-12-04T11:06:00;14.88;;;9.48;;
78648;SDS011;67962;47.310;9.642;2023-12-04T11:08:29;16.80;;;9.20;;
78648;SDS011;67962;47.310;9.642;2023-12-04T11:11:02;22.33;;;10.45;;
78648;SDS011;67962;47.310;9.642;2023-12-04T11:13:32;20.83;;;11.13;;
78648;SDS011;67962;47.310;9.642;2023-12-04T11:16:15;20.10;;;11.60;;
78648;SDS011;67962;47.310;9.642;2023-12-04T11:19:02;21.63;;;12.18;;
78648;SDS011;67962;47.310;9.642;2023-12-04T11:21:35;19.35;;;11.63;;
78648;SDS011;67962;47.310;9.642;2023-12-04T11:24:03;24.25;;;13.82;;
78648;SDS011;67962;47.310;9.642;2023-12-04T11:26:30;15.65;;;10.18;;
78648;SDS011;67962;47.310;9.642;2023-12-04T11:28:57;16.17;;;9.55;;
78648;SDS011;67962;47.310;9.642;2023-12-04T11:31:23;16.02;;;9.60;;
78648;SDS011;67962;47.310;9.642;2023-12-04T11:33:49;15.77;;;9.85;;
78648;SDS011;67962;47.310;9.642;2023-12-04T11:36:15;18.20;;;10.90;;
78648;SDS011;67962;47.310;9.642;2023-12-04T11:38:44;17.15;;;10.52;;
78648;SDS011;67962;47.310;9.642;2023-12-04T11:41:14;16.65;;;10.93;;
78648;SDS011;67962;47.310;9.642;2023-12-04T11:43:41;16.85;;;10.30;;
78648;SDS011;67962;47.310;9.642;2023-12-04T11:46:08;17.90;;;10.82;;
78648;SDS011;67962;47.310;9.642;2023-12-04T11:48:36;16.00;;;9.90;;
78648;SDS011;67962;47.310;9.642;2023-12-04T11:51:02;18.23;;;11.02;;
78648;SDS011;67962;47.310;9.642;2023-12-04T11:53:30;20.35;;;11.88;;
78648;SDS011;67962;47.310;9.642;2023-12-04T11:55:55;20.80;;;10.60;;
78648;SDS011;67962;47.310;9.642;2023-12-04T11:58:24;19.42;;;11.40;;
78648;SDS011;67962;47.310;9.642;2023-12-04T12:00:51;21.30;;;10.43;;
78648;SDS011;67962;47.310;9.642;2023-12-04T12:03:17;24.13;;;10.70;;
78648;SDS011;67962;47.310;9.642;2023-12-04T12:05:45;21.17;;;11.32;;
78648;SDS011;67962;47.310;9.642;2023-12-04T12:08:15;20.65;;;10.68;;
78648;SDS011;67962;47.310;9.642;2023-12-04T12:10:40;23.63;;;11.85;;
78648;SDS011;67962;47.310;9.642;2023-12-04T12:13:06;19.52;;;11.07;;
78648;SDS011;67962;47.310;9.642;2023-12-04T12:15:32;16.40;;;10.68;;
78648;SDS011;67962;47.310;9.642;2023-12-04T12:17:59;17.33;;;10.45;;
78648;SDS011;67962;47.310;9.642;2023-12-04T12:20:24;16.67;;;11.07;;
78648;SDS011;67962;47.310;9.642;2023-12-04T12:22:51;12.15;;;6.88;;
78648;SDS011;67962;47.310;9.642;2023-12-04T12:25:17;18.27;;;11.20;;
78648;SDS011;67962;47.310;9.642;2023-12-04T12:27:44;20.73;;;11.93;;
78648;SDS011;67962;47.310;9.642;2023-12-04T12:30:10;16.25;;;10.32;;
78648;SDS011;67962;47.310;9.642;2023-12-04T12:32:36;18.40;;;11.35;;
78648;SDS011;67962;47.310;9.642;2023-12-04T12:35:02;18.38;;;11.00;;
78648;SDS011;67962;47.310;9.642;2023-12-04T12:37:28;21.17;;;12.10;;
78648;SDS011;67962;47.310;9.642;2023-12-04T12:39:54;19.67;;;12.05;;
78648;SDS011;67962;47.310;9.642;2023-12-04T12:42:25;22.35;;;12.27;;
78648;SDS011;67962;47.310;9.642;2023-12-04T12:44:52;26.02;;;13.65;;
78648;SDS011;67962;47.310;9.642;2023-12-04T12:47:19;20.20;;;13.00;;
78648;SDS011;67962;47.310;9.642;2023-12-04T12:49:44;23.95;;;13.75;;
78648;SDS011;67962;47.310;9.642;2023-12-04T12:52:10;22.70;;;12.27;;
78648;SDS011;67962;47.310;9.642;2023-12-04T12:54:40;20.95;;;12.23;;
78648;SDS011;67962;47.310;9.642;2023-12-04T12:57:06;24.10;;;13.60;;
78648;SDS011;67962;47.310;9.642;2023-12-04T12:59:33;22.00;;;13.25;;
78648;SDS011;67962;47.310;9.642;2023-12-04T13:01:59;22.00;;;11.80;;
78648;SDS011;67962;47.310;9.642;2023-12-04T13:04:26;19.33;;;11.82;;
78648;SDS011;67962;47.310;9.642;2023-12-04T13:06:58;20.70;;;11.98;;
78648;SDS011;67962;47.310;9.642;2023-12-04T13:09:24;19.58;;;12.00;;
78648;SDS011;67962;47.310;9.642;2023-12-04T13:11:50;18.67;;;11.60;;
78648;SDS011;67962;47.310;9.642;2023-12-04T13:14:17;21.92;;;12.30;;
78648;SDS011;67962;47.310;9.642;2023-12-04T13:16:42;18.95;;;12.10;;
78648;SDS011;67962;47.310;9.642;2023-12-04T13:19:08;18.65;;;11.38;;
78648;SDS011;67962;47.310;9.642;2023-12-04T13:21:34;19.42;;;12.15;;
78648;SDS011;67962;47.310;9.642;2023-12-04T13:23:59;25.40;;;13.60;;
78648;SDS011;67962;47.310;9.642;2023-12-04T13:26:25;23.02;;;12.00;;
78648;SDS011;67962;47.310;9.642;2023-12-04T13:28:51;23.25;;;12.75;;
78648;SDS011;67962;47.310;9.642;2023-12-04T13:31:16;21.80;;;12.50;;
78648;SDS011;67962;47.310;9.642;2023-12-04T13:33:42;24.00;;;13.95;;
78648;SDS011;67962;47.310;9.642;2023-12-04T13:36:11;21.58;;;12.48;;
78648;SDS011;67962;47.310;9.642;2023-12-04T13:38:36;25.73;;;14.50;;
78648;SDS011;67962;47.310;9.642;2023-12-04T13:41:02;25.73;;;15.40;;
78648;SDS011;67962;47.310;9.642;2023-12-04T13:43:44;28.40;;;15.20;;
78648;SDS011;67962;47.310;9.642;2023-12-04T13:46:15;26.27;;;14.93;;
78648;SDS011;67962;47.310;9.642;2023-12-04T13:48:41;27.85;;;15.80;;
78648;SDS011;67962;47.310;9.642;2023-12-04T13:51:10;26.02;;;14.95;;
78648;SDS011;67962;47.310;9.642;2023-12-04T13:53:37;29.00;;;16.20;;
78648;SDS011;67962;47.310;9.642;2023-12-04T13:56:09;27.80;;;16.02;;
78648;SDS011;67962;47.310;9.642;2023-12-04T13:58:48;29.90;;;15.27;;
78648;SDS011;67962;47.310;9.642;2023-12-04T14:01:21;26.83;;;16.05;;
78648;SDS011;67962;47.310;9.642;2023-12-04T14:03:53;25.48;;;15.13;;
78648;SDS011;67962;47.310;9.642;2023-12-04T14:06:21;29.35;;;16.67;;
78648;SDS011;67962;47.310;9.642;2023-12-04T14:08:47;33.30;;;18.15;;
78648;SDS011;67962;47.310;9.642;2023-12-04T14:11:13;29.98;;;17.00;;
78648;SDS011;67962;47.310;9.642;2023-12-04T14:13:39;34.40;;;17.45;;
78648;SDS011;67962;47.310;9.642;2023-12-04T14:16:05;30.40;;;17.60;;
78648;SDS011;67962;47.310;9.642;2023-12-04T14:18:31;34.78;;;18.02;;
78648;SDS011;67962;47.310;9.642;2023-12-04T14:20:57;32.83;;;17.67;;
78648;SDS011;67962;47.310;9.642;2023-12-04T14:23:23;42.75;;;20.00;;
78648;SDS011;67962;47.310;9.642;2023-12-04T14:25:49;30.00;;;17.15;;
78648;SDS011;67962;47.310;9.642;2023-12-04T14:28:15;33.63;;;18.70;;
78648;SDS011;67962;47.310;9.642;2023-12-04T14:30:41;32.03;;;18.67;;
78648;SDS011;67962;47.310;9.642;2023-12-04T14:33:06;42.33;;;18.38;;